Time;durP1;ratioP1;P1;durP2;ratioP2;P2;SDS_P1;SDS_P2;PMS_P1;PMS_P2;Temp;Humidity;BMP_temperature;BMP_pressure;BME280_temperature;BME280_humidity;BME280_pressure;Samples;Min_cycle;Max_cycle;Signal;HPM_P1;HPM_P2
2021/11/13 00:01:15;;;;;;;;;;;12.30;99.90;;;;;;5014848;28;19992;-77
2021/11/13 00:03:41;;;;;;;;;;;12.30;99.90;;;;;;5014731;28;20348;-77
2021/11/13 00:06:07;;;;;;;;;;;12.20;99.90;;;;;;5014700;28;19988;-78
2021/11/13 00:08:32;;;;;;;;;;;12.30;99.90;;;;;;5014663;28;19955;-77
2021/11/13 00:10:58;;;;;;;;;;;12.20;99.90;;;;;;5014887;28;19905;-79
2021/11/13 00:13:24;;;;;;;;;;;12.20;99.90;;;;;;5014211;28;19944;-77
2021/11/13 00:15:51;;;;;;;;;;;12.30;99.90;;;;;;5013225;28;20362;-78
2021/11/13 00:18:16;;;;;;;;;;;12.30;99.90;;;;;;5013176;28;19905;-78
2021/11/13 00:20:42;;;;;;;;;;;12.30;99.90;;;;;;5014612;28;20381;-77
2021/11/13 00:23:08;;;;;;;;;;;12.20;99.90;;;;;;5014154;28;19905;-76
2021/11/13 00:25:33;;;;;;;;;;;12.30;99.90;;;;;;5014308;28;19913;-77
2021/11/13 00:27:59;;;;;;;;;;;12.20;99.90;;;;;;5014326;28;19906;-78
2021/11/13 00:30:25;;;;;;;;;;;12.30;99.90;;;;;;5014698;28;19905;-77
2021/11/13 00:32:51;;;;;;;;;;;12.30;99.90;;;;;;5014352;28;20444;-78
2021/11/13 00:35:16;;;;;;;;;;;12.30;99.90;;;;;;5014264;28;19910;-78
2021/11/13 00:37:42;;;;;;;;;;;12.20;99.90;;;;;;5014233;28;19956;-78
2021/11/13 00:40:09;;;;;;;;;;;12.20;99.90;;;;;;5012738;28;20366;-78
2021/11/13 00:42:35;;;;;;;;;;;12.10;99.90;;;;;;5014390;28;19905;-78
2021/11/13 00:45:00;;;;;;;;;;;12.00;99.90;;;;;;5014049;28;19916;-77
2021/11/13 00:47:26;;;;;;;;;;;12.00;99.90;;;;;;5012564;28;19906;-78
2021/11/13 00:49:52;;;;;;;;;;;11.90;99.90;;;;;;5014063;28;20385;-77
2021/11/13 00:52:18;;;;;;;;;;;11.90;99.90;;;;;;5014379;28;19975;-77
2021/11/13 00:54:44;;;;;;;;;;;11.80;99.90;;;;;;5014070;28;19905;-78
2021/11/13 00:57:09;;;;;;;;;;;11.80;99.90;;;;;;5013939;28;19905;-76
2021/11/13 00:59:36;;;;;;;;;;;11.80;99.90;;;;;;5013887;28;19915;-78
2021/11/13 01:02:02;;;;;;;;;;;11.80;99.90;;;;;;5013853;28;19913;-77
2021/11/13 01:04:28;;;;;;;;;;;11.70;99.90;;;;;;5014078;28;19910;-77
2021/11/13 01:06:53;;;;;;;;;;;11.70;99.90;;;;;;5013843;28;19948;-77
2021/11/13 01:09:19;;;;;;;;;;;11.60;99.90;;;;;;5013511;28;19910;-77
2021/11/13 01:11:45;;;;;;;;;;;11.60;99.90;;;;;;5012256;28;19917;-77
2021/11/13 01:14:11;;;;;;;;;;;11.70;99.90;;;;;;5014045;28;19916;-78
2021/11/13 01:16:37;;;;;;;;;;;11.60;99.90;;;;;;5013943;28;20277;-77
2021/11/13 01:19:03;;;;;;;;;;;11.40;99.90;;;;;;5013607;28;19976;-77
2021/11/13 01:21:28;;;;;;;;;;;11.40;99.90;;;;;;5013697;28;19906;-77
2021/11/13 01:23:54;;;;;;;;;;;11.50;99.90;;;;;;5013651;28;19913;-78
2021/11/13 01:26:20;;;;;;;;;;;11.50;99.90;;;;;;5013579;28;19905;-78
2021/11/13 01:28:46;;;;;;;;;;;11.50;99.90;;;;;;5013636;28;19913;-77
2021/11/13 01:31:14;;;;;;;;;;;11.70;99.90;;;;;;5013574;28;19905;-76
2021/11/13 01:33:40;;;;;;;;;;;11.70;99.90;;;;;;5013566;28;19913;-77
2021/11/13 01:36:06;;;;;;;;;;;11.60;99.90;;;;;;5014871;28;19905;-78
2021/11/13 01:38:32;;;;;;;;;;;11.60;99.90;;;;;;5017625;28;20263;-78
2021/11/13 01:40:58;;;;;;;;;;;11.70;99.90;;;;;;5017531;28;19964;-77
2021/11/13 01:43:23;;;;;;;;;;;11.80;99.90;;;;;;5017322;28;19905;-78
2021/11/13 01:45:49;;;;;;;;;;;11.90;99.90;;;;;;5017454;28;19912;-78
2021/11/13 01:48:15;;;;;;;;;;;12.00;99.90;;;;;;5017482;28;19906;-78
2021/11/13 01:50:45;;;;;;;;;;;11.90;99.90;;;;;;5017198;28;20000;-77
2021/11/13 01:53:11;;;;;;;;;;;11.80;99.90;;;;;;5017274;28;19905;-77
2021/11/13 01:55:37;;;;;;;;;;;11.80;99.90;;;;;;5017120;28;19913;-77
2021/11/13 01:58:04;;;;;;;;;;;11.80;99.90;;;;;;5017269;28;19914;-78
2021/11/13 02:00:33;;;;;;;;;;;11.90;99.90;;;;;;5016940;28;19917;-77
2021/11/13 02:02:59;;;;;;;;;;;11.80;99.90;;;;;;5017047;28;19906;-77
2021/11/13 02:05:24;;;;;;;;;;;11.80;99.90;;;;;;5017094;28;19906;-78
2021/11/13 02:07:50;;;;;;;;;;;11.80;99.90;;;;;;5016911;28;19912;-77
2021/11/13 02:10:17;;;;;;;;;;;11.50;99.90;;;;;;5016886;28;20390;-78
2021/11/13 02:12:43;;;;;;;;;;;11.40;99.90;;;;;;5016612;28;19917;-77
2021/11/13 02:15:08;;;;;;;;;;;11.30;99.90;;;;;;5016773;28;20368;-77
2021/11/13 02:17:34;;;;;;;;;;;11.20;99.90;;;;;;5016837;28;19905;-77
2021/11/13 02:20:16;;;;;;;;;;;11.20;99.90;;;;;;5016597;28;20403;-77
2021/11/13 02:22:42;;;;;;;;;;;11.20;99.90;;;;;;5016613;28;19988;-77
2021/11/13 02:25:08;;;;;;;;;;;11.30;99.90;;;;;;5016660;28;20373;-77
2021/11/13 02:27:33;;;;;;;;;;;11.30;99.90;;;;;;5016585;28;20281;-78
2021/11/13 02:29:59;;;;;;;;;;;11.30;99.90;;;;;;5017083;28;20243;-77
2021/11/13 02:32:24;;;;;;;;;;;11.40;99.90;;;;;;5016478;28;19913;-78
2021/11/13 02:34:50;;;;;;;;;;;11.40;99.90;;;;;;5016608;28;19905;-77
2021/11/13 02:37:16;;;;;;;;;;;11.40;99.90;;;;;;5016364;28;20432;-78
2021/11/13 02:39:43;;;;;;;;;;;11.50;99.90;;;;;;5016376;28;19995;-77
2021/11/13 02:42:08;;;;;;;;;;;11.40;99.90;;;;;;5016323;28;19932;-77
2021/11/13 02:44:34;;;;;;;;;;;11.40;99.90;;;;;;5016442;28;19905;-78
2021/11/13 02:47:00;;;;;;;;;;;11.30;99.90;;;;;;5016012;28;19913;-77
2021/11/13 02:49:26;;;;;;;;;;;11.40;99.90;;;;;;5016282;28;19910;-77
2021/11/13 02:51:52;;;;;;;;;;;11.40;99.90;;;;;;5016126;28;19906;-77
2021/11/13 02:54:17;;;;;;;;;;;11.40;99.90;;;;;;5016054;28;19905;-78
2021/11/13 02:56:44;;;;;;;;;;;11.40;99.90;;;;;;5014793;28;19909;-78
2021/11/13 02:59:09;;;;;;;;;;;11.30;99.90;;;;;;5016017;28;19916;-77
2021/11/13 03:01:35;;;;;;;;;;;11.30;99.90;;;;;;5016098;28;19906;-77
2021/11/13 03:04:00;;;;;;;;;;;11.30;99.90;;;;;;5015846;28;20377;-77
2021/11/13 03:06:26;;;;;;;;;;;11.40;99.90;;;;;;5015821;28;19955;-76
2021/11/13 03:08:53;;;;;;;;;;;11.30;99.90;;;;;;5014512;28;20367;-77
2021/11/13 03:11:20;;;;;;;;;;;11.10;99.90;;;;;;5015658;28;19909;-78
2021/11/13 03:13:47;;;;;;;;;;;11.10;99.90;;;;;;5015813;28;19956;-78
2021/11/13 03:16:14;;;;;;;;;;;11.30;99.90;;;;;;5015845;28;19905;-78
2021/11/13 03:18:40;;;;;;;;;;;11.40;99.90;;;;;;5015520;28;19991;-79
2021/11/13 03:21:06;;;;;;;;;;;11.30;99.90;;;;;;5015788;28;19936;-79
2021/11/13 03:23:32;;;;;;;;;;;11.30;99.90;;;;;;5015548;28;19916;-78
2021/11/13 03:25:59;;;;;;;;;;;11.40;99.90;;;;;;5015501;28;19912;-78
2021/11/13 03:28:26;;;;;;;;;;;11.30;99.90;;;;;;5015663;28;19905;-79
2021/11/13 03:30:52;;;;;;;;;;;11.20;99.90;;;;;;5015684;28;19910;-77
2021/11/13 03:33:17;;;;;;;;;;;11.20;99.90;;;;;;5014208;28;19911;-78
2021/11/13 03:35:43;;;;;;;;;;;11.20;99.90;;;;;;5015472;28;19905;-78
2021/11/13 03:38:10;;;;;;;;;;;11.30;99.90;;;;;;5015381;28;20358;-79
2021/11/13 03:40:37;;;;;;;;;;;11.30;99.90;;;;;;5013869;28;19963;-78
2021/11/13 03:43:03;;;;;;;;;;;11.30;99.90;;;;;;5015526;28;19905;-77
2021/11/13 03:45:28;;;;;;;;;;;11.30;99.90;;;;;;5015241;28;19909;-78
2021/11/13 03:47:54;;;;;;;;;;;11.30;99.90;;;;;;5015233;28;20043;-77
2021/11/13 03:50:20;;;;;;;;;;;11.20;99.90;;;;;;5015163;28;19931;-79
2021/11/13 03:52:45;;;;;;;;;;;11.20;99.90;;;;;;5015089;28;19905;-77
2021/11/13 03:55:11;;;;;;;;;;;11.10;99.90;;;;;;5015258;28;19913;-78
2021/11/13 03:57:36;;;;;;;;;;;11.10;99.90;;;;;;5015263;28;20259;-78
2021/11/13 04:00:04;;;;;;;;;;;11.20;99.90;;;;;;5014348;28;19913;-78
2021/11/13 04:02:29;;;;;;;;;;;11.20;99.90;;;;;;5015393;28;19955;-78
2021/11/13 04:04:55;;;;;;;;;;;11.20;99.90;;;;;;5014888;28;19905;-78
2021/11/13 04:07:20;;;;;;;;;;;11.30;99.90;;;;;;5014923;28;19996;-77
2021/11/13 04:09:46;;;;;;;;;;;11.20;99.90;;;;;;5014877;28;19928;-78
2021/11/13 04:12:14;;;;;;;;;;;11.10;99.90;;;;;;5013317;28;19917;-78
2021/11/13 04:14:41;;;;;;;;;;;11.10;99.90;;;;;;5014705;28;20354;-77
2021/11/13 04:17:07;;;;;;;;;;;11.10;99.90;;;;;;5014701;28;20334;-78
2021/11/13 04:19:33;;;;;;;;;;;11.10;99.90;;;;;;5014572;28;20004;-78
2021/11/13 04:21:58;;;;;;;;;;;11.10;99.90;;;;;;5014639;28;19948;-78
2021/11/13 04:24:24;;;;;;;;;;;11.10;99.90;;;;;;5014544;28;19945;-79
2021/11/13 04:26:50;;;;;;;;;;;11.10;99.90;;;;;;5014760;28;20385;-78
2021/11/13 04:29:15;;;;;;;;;;;11.10;99.90;;;;;;5014840;28;19951;-78
2021/11/13 04:31:41;;;;;;;;;;;11.10;99.90;;;;;;5014453;28;19916;-78
2021/11/13 04:34:14;;;;;;;;;;;11.10;99.90;;;;;;5014386;28;19992;-78
2021/11/13 04:36:44;;;;;;;;;;;11.10;99.90;;;;;;5014374;28;19912;-78
2021/11/13 04:39:10;;;;;;;;;;;11.10;99.90;;;;;;5014171;28;19959;-77
2021/11/13 04:41:37;;;;;;;;;;;11.10;99.90;;;;;;5014395;28;19973;-78
2021/11/13 04:44:03;;;;;;;;;;;11.10;99.90;;;;;;5014207;28;19905;-78
2021/11/13 04:46:29;;;;;;;;;;;11.10;99.90;;;;;;5014404;28;19927;-77
2021/11/13 04:48:54;;;;;;;;;;;11.20;99.90;;;;;;5014517;28;19905;-77
2021/11/13 04:51:20;;;;;;;;;;;11.20;99.90;;;;;;5014315;28;19912;-78
2021/11/13 04:53:46;;;;;;;;;;;11.10;99.90;;;;;;5014167;28;20020;-78
2021/11/13 04:56:12;;;;;;;;;;;11.10;99.90;;;;;;5014102;28;19917;-78
2021/11/13 04:58:37;;;;;;;;;;;11.10;99.90;;;;;;5014167;28;19905;-78
2021/11/13 05:01:04;;;;;;;;;;;11.10;99.90;;;;;;5014118;28;19955;-78
2021/11/13 05:03:30;;;;;;;;;;;11.10;99.90;;;;;;5013986;28;19909;-77
2021/11/13 05:05:56;;;;;;;;;;;11.10;99.90;;;;;;5013951;28;19906;-77
2021/11/13 05:08:21;;;;;;;;;;;11.10;99.90;;;;;;5013934;28;20500;-78
2021/11/13 05:10:48;;;;;;;;;;;11.10;99.90;;;;;;5013730;28;19928;-78
2021/11/13 05:13:14;;;;;;;;;;;11.10;99.90;;;;;;5013554;28;19940;-77
2021/11/13 05:15:39;;;;;;;;;;;11.10;99.90;;;;;;5014127;28;20417;-78
2021/11/13 05:18:05;;;;;;;;;;;11.00;99.90;;;;;;5012837;28;20040;-78
2021/11/13 05:20:31;;;;;;;;;;;11.10;99.90;;;;;;5013821;28;19913;-78
2021/11/13 05:22:56;;;;;;;;;;;11.10;99.90;;;;;;5013869;28;19913;-78
2021/11/13 05:25:22;;;;;;;;;;;11.10;99.90;;;;;;5013789;28;20032;-78
2021/11/13 05:27:49;;;;;;;;;;;11.10;99.90;;;;;;5013977;28;20358;-78
2021/11/13 05:30:15;;;;;;;;;;;11.20;99.90;;;;;;5013695;28;19905;-78
2021/11/13 05:32:41;;;;;;;;;;;11.20;99.90;;;;;;5013732;28;20318;-78
2021/11/13 05:35:08;;;;;;;;;;;11.20;99.90;;;;;;5013749;28;19952;-79
2021/11/13 05:37:33;;;;;;;;;;;11.10;99.90;;;;;;5013629;28;20415;-78
2021/11/13 05:39:59;;;;;;;;;;;11.10;99.90;;;;;;5013597;28;19960;-78
2021/11/13 05:42:25;;;;;;;;;;;11.00;99.90;;;;;;5013622;28;19905;-78
2021/11/13 05:44:51;;;;;;;;;;;11.10;99.90;;;;;;5013735;28;20280;-78
2021/11/13 05:47:16;;;;;;;;;;;11.10;99.90;;;;;;5013599;28;19947;-78
2021/11/13 05:49:42;;;;;;;;;;;11.20;99.90;;;;;;5013928;28;19909;-77
2021/11/13 05:52:08;;;;;;;;;;;11.10;99.90;;;;;;5013873;28;19945;-78
2021/11/13 05:54:33;;;;;;;;;;;11.10;99.90;;;;;;5013757;28;20259;-78
2021/11/13 05:56:59;;;;;;;;;;;11.10;99.90;;;;;;5013582;28;20271;-77
2021/11/13 05:59:24;;;;;;;;;;;11.00;99.90;;;;;;5013454;28;19909;-78
2021/11/13 06:01:50;;;;;;;;;;;11.00;99.90;;;;;;5013735;28;19905;-78
2021/11/13 06:04:16;;;;;;;;;;;11.00;99.90;;;;;;5013520;28;20294;-77
2021/11/13 06:06:41;;;;;;;;;;;10.90;99.90;;;;;;5013449;28;19948;-77
2021/11/13 06:09:07;;;;;;;;;;;10.90;99.90;;;;;;5013967;28;20392;-78
2021/11/13 06:11:32;;;;;;;;;;;10.90;99.90;;;;;;5013191;28;19905;-78
2021/11/13 06:13:58;;;;;;;;;;;11.00;99.90;;;;;;5013530;28;20353;-79
2021/11/13 06:16:24;;;;;;;;;;;11.00;99.90;;;;;;5012349;28;19932;-78
2021/11/13 06:18:49;;;;;;;;;;;11.00;99.90;;;;;;5013254;28;20366;-77
2021/11/13 06:21:15;;;;;;;;;;;11.00;99.90;;;;;;5013334;28;19912;-78
2021/11/13 06:23:45;;;;;;;;;;;11.00;99.90;;;;;;5016817;28;19905;-77
2021/11/13 06:26:10;;;;;;;;;;;11.00;99.90;;;;;;5016808;28;19905;-77
2021/11/13 06:28:36;;;;;;;;;;;11.00;99.90;;;;;;5016729;28;19992;-78
2021/11/13 06:31:02;;;;;;;;;;;11.00;99.90;;;;;;5016821;28;19906;-78
2021/11/13 06:33:28;;;;;;;;;;;11.00;99.90;;;;;;5016611;28;19912;-78
2021/11/13 06:35:53;;;;;;;;;;;11.00;99.90;;;;;;5016759;28;19905;-79
2021/11/13 06:38:19;;;;;;;;;;;11.00;99.90;;;;;;5016552;28;19912;-79
2021/11/13 06:40:45;;;;;;;;;;;11.10;99.90;;;;;;5016422;28;20064;-78
2021/11/13 06:43:10;;;;;;;;;;;11.00;99.90;;;;;;5016747;28;19905;-77
2021/11/13 06:45:37;;;;;;;;;;;11.10;99.90;;;;;;5016667;28;19912;-79
2021/11/13 06:48:02;;;;;;;;;;;11.20;99.90;;;;;;5016642;28;19984;-78
2021/11/13 06:50:28;;;;;;;;;;;11.20;99.90;;;;;;5016232;28;19944;-78
2021/11/13 06:52:54;;;;;;;;;;;11.20;99.90;;;;;;5016302;28;19948;-76
2021/11/13 06:55:19;;;;;;;;;;;11.20;99.90;;;;;;5014933;28;20354;-78
2021/11/13 06:57:45;;;;;;;;;;;11.20;99.90;;;;;;5016150;28;19906;-78
2021/11/13 07:00:13;;;;;;;;;;;11.20;99.90;;;;;;5016032;28;19920;-78
2021/11/13 07:02:38;;;;;;;;;;;11.20;99.90;;;;;;5016624;28;20366;-78
2021/11/13 07:05:05;;;;;;;;;;;11.20;99.90;;;;;;5015992;28;20004;-78
2021/11/13 07:07:33;;;;;;;;;;;11.30;99.90;;;;;;5016077;28;19905;-78
2021/11/13 07:10:00;;;;;;;;;;;11.30;99.90;;;;;;5014681;28;20278;-78
2021/11/13 07:12:26;;;;;;;;;;;11.20;99.90;;;;;;5015828;28;19988;-79
2021/11/13 07:14:52;;;;;;;;;;;11.20;99.90;;;;;;5016096;28;19909;-78
2021/11/13 07:17:17;;;;;;;;;;;11.30;99.90;;;;;;5015843;28;19913;-78
2021/11/13 07:19:43;;;;;;;;;;;11.30;99.90;;;;;;5015756;28;20283;-79
2021/11/13 07:22:08;;;;;;;;;;;11.40;99.90;;;;;;5015762;28;19905;-79
2021/11/13 07:24:34;;;;;;;;;;;11.50;99.90;;;;;;5015748;28;19912;-78
2021/11/13 07:27:00;;;;;;;;;;;11.40;99.90;;;;;;5016074;28;19983;-78
2021/11/13 07:29:27;;;;;;;;;;;11.40;99.90;;;;;;5015591;28;19912;-79
2021/11/13 07:31:53;;;;;;;;;;;11.50;99.90;;;;;;5015547;28;19905;-78
2021/11/13 07:34:19;;;;;;;;;;;11.60;99.90;;;;;;5015427;28;19988;-77
2021/11/13 07:36:44;;;;;;;;;;;11.60;99.90;;;;;;5015452;28;19917;-77
2021/11/13 07:39:10;;;;;;;;;;;11.60;99.90;;;;;;5015547;28;20004;-78
2021/11/13 07:41:36;;;;;;;;;;;11.50;99.90;;;;;;5015328;28;19905;-78
2021/11/13 07:44:01;;;;;;;;;;;11.50;99.90;;;;;;5015279;28;19915;-78
2021/11/13 07:46:27;;;;;;;;;;;11.50;99.90;;;;;;5015276;28;19906;-78
2021/11/13 07:48:53;;;;;;;;;;;11.60;99.90;;;;;;5015628;28;19907;-78
2021/11/13 07:51:20;;;;;;;;;;;11.50;99.90;;;;;;5015149;28;19905;-78
2021/11/13 07:53:47;;;;;;;;;;;11.60;99.90;;;;;;5015315;28;20008;-78
2021/11/13 07:56:12;;;;;;;;;;;11.50;99.90;;;;;;5015162;28;19906;-78
2021/11/13 07:58:38;;;;;;;;;;;11.50;99.90;;;;;;5015062;28;20385;-78
2021/11/13 08:01:04;;;;;;;;;;;11.60;99.90;;;;;;5015242;28;19964;-78
2021/11/13 08:03:29;;;;;;;;;;;11.50;99.90;;;;;;5015106;28;19988;-77
2021/11/13 08:05:55;;;;;;;;;;;11.60;99.90;;;;;;5014919;28;19905;-78
2021/11/13 08:08:21;;;;;;;;;;;11.70;99.90;;;;;;5015012;28;19947;-78
2021/11/13 08:10:46;;;;;;;;;;;11.70;99.90;;;;;;5014844;28;19905;-79
2021/11/13 08:13:13;;;;;;;;;;;11.60;99.90;;;;;;5014523;28;19923;-77
2021/11/13 08:15:39;;;;;;;;;;;11.60;99.90;;;;;;5014927;28;19992;-79
2021/11/13 08:18:05;;;;;;;;;;;11.70;99.90;;;;;;5014716;28;19912;-78
2021/11/13 08:20:31;;;;;;;;;;;11.70;99.90;;;;;;5014603;28;19909;-77
2021/11/13 08:22:57;;;;;;;;;;;11.70;99.90;;;;;;5014638;28;19944;-77
2021/11/13 08:25:22;;;;;;;;;;;11.60;99.90;;;;;;5014592;28;19912;-78
2021/11/13 08:27:48;;;;;;;;;;;11.70;99.90;;;;;;5013225;28;19912;-78
2021/11/13 08:30:15;;;;;;;;;;;11.80;99.90;;;;;;5014477;28;19912;-78
2021/11/13 08:32:41;;;;;;;;;;;11.90;99.90;;;;;;5013157;28;20325;-78
2021/11/13 08:35:07;;;;;;;;;;;11.90;99.90;;;;;;5013083;28;19988;-78
2021/11/13 08:37:33;;;;;;;;;;;12.00;99.90;;;;;;5014654;28;19911;-79
2021/11/13 08:39:59;;;;;;;;;;;12.10;99.90;;;;;;5014276;28;19909;-78
2021/11/13 08:42:24;;;;;;;;;;;12.10;99.90;;;;;;5014302;28;20288;-79
2021/11/13 08:44:51;;;;;;;;;;;12.10;99.90;;;;;;5012534;28;19997;-79
2021/11/13 08:47:17;;;;;;;;;;;12.20;99.90;;;;;;5014660;28;20424;-79
2021/11/13 08:49:44;;;;;;;;;;;12.30;99.90;;;;;;5014206;28;20322;-78
2021/11/13 08:52:11;;;;;;;;;;;12.40;99.90;;;;;;5014256;28;19905;-78
2021/11/13 08:54:37;;;;;;;;;;;12.50;99.90;;;;;;5014114;28;19948;-79
2021/11/13 08:57:03;;;;;;;;;;;12.80;99.90;;;;;;5014109;28;19912;-78
2021/11/13 08:59:29;;;;;;;;;;;12.70;99.90;;;;;;5014062;28;19916;-78
2021/11/13 09:01:55;;;;;;;;;;;13.00;99.90;;;;;;5013941;28;19921;-78
2021/11/13 09:04:21;;;;;;;;;;;13.40;99.90;;;;;;5013984;28;19909;-78
2021/11/13 09:06:47;;;;;;;;;;;13.80;99.90;;;;;;5014403;28;19912;-78
2021/11/13 09:09:12;;;;;;;;;;;14.00;99.90;;;;;;5012704;28;19975;-78
2021/11/13 09:11:39;;;;;;;;;;;14.30;99.90;;;;;;5013763;28;19914;-79
2021/11/13 09:14:06;;;;;;;;;;;14.30;99.90;;;;;;5013920;28;20321;-79
2021/11/13 09:16:32;;;;;;;;;;;14.40;99.90;;;;;;5014212;28;19909;-78
2021/11/13 09:18:58;;;;;;;;;;;14.50;99.90;;;;;;5014077;28;20385;-78
2021/11/13 09:21:25;;;;;;;;;;;14.50;99.90;;;;;;5013849;28;19956;-78
2021/11/13 09:23:50;;;;;;;;;;;14.90;99.90;;;;;;5013801;28;19928;-78
2021/11/13 09:26:16;;;;;;;;;;;15.10;99.90;;;;;;5013775;28;20247;-79
2021/11/13 09:28:43;;;;;;;;;;;15.20;99.90;;;;;;5013798;28;19917;-79
2021/11/13 09:31:09;;;;;;;;;;;15.30;99.90;;;;;;5013905;28;19906;-78
2021/11/13 09:33:35;;;;;;;;;;;15.30;99.90;;;;;;5013718;28;19905;-79
2021/11/13 09:36:01;;;;;;;;;;;15.60;99.90;;;;;;5013688;28;19909;-78
2021/11/13 09:38:28;;;;;;;;;;;15.80;99.90;;;;;;5013602;28;19912;-78
2021/11/13 09:40:55;;;;;;;;;;;15.60;99.90;;;;;;5013600;28;19959;-78
2021/11/13 09:43:23;;;;;;;;;;;15.50;99.90;;;;;;5013479;28;19996;-77
2021/11/13 09:45:50;;;;;;;;;;;15.00;99.90;;;;;;5012071;28;20251;-78
2021/11/13 09:48:16;;;;;;;;;;;14.90;99.90;;;;;;4992213;28;19920;-79
2021/11/13 09:50:46;;;;;;;;;;;14.80;99.90;;;;;;5031398;28;19909;-78
2021/11/13 09:53:12;;;;;;;;;;;14.80;99.90;;;;;;5032830;28;19916;-79
2021/11/13 09:55:38;;;;;;;;;;;15.00;99.90;;;;;;5032926;28;19905;-78
2021/11/13 09:58:04;;;;;;;;;;;14.80;99.90;;;;;;5034436;28;19905;-79
2021/11/13 10:00:31;;;;;;;;;;;15.30;99.90;;;;;;5035245;28;19909;-78
2021/11/13 10:02:58;;;;;;;;;;;15.50;99.90;;;;;;5036727;28;20039;-78
2021/11/13 10:05:33;;;;;;;;;;;15.70;99.90;;;;;;5036510;28;19909;-78
2021/11/13 10:07:59;;;;;;;;;;;16.00;99.90;;;;;;5034739;28;19905;-80
2021/11/13 10:10:32;;;;;;;;;;;17.10;99.90;;;;;;5036268;28;20288;-80
2021/11/13 10:12:58;;;;;;;;;;;17.50;99.90;;;;;;5036321;28;20436;-80
2021/11/13 10:15:34;;;;;;;;;;;17.80;99.90;;;;;;5036429;28;19955;-81
2021/11/13 10:18:03;;;;;;;;;;;17.70;99.90;;;;;;5036035;28;19905;-80
2021/11/13 10:20:29;;;;;;;;;;;17.50;99.90;;;;;;5036187;28;20004;-80
2021/11/13 10:22:54;;;;;;;;;;;17.30;99.90;;;;;;5036339;28;19996;-80
2021/11/13 10:25:21;;;;;;;;;;;17.20;99.90;;;;;;5051613;28;19905;-80
2021/11/13 10:28:05;;;;;;;;;;;16.90;99.90;;;;;;5035940;28;19905;-80
2021/11/13 10:30:31;;;;;;;;;;;16.70;99.90;;;;;;5035852;28;19905;-80
2021/11/13 10:32:57;;;;;;;;;;;17.30;99.90;;;;;;5036172;28;20290;-80
2021/11/13 10:35:40;;;;;;;;;;;17.70;99.90;;;;;;5036038;28;19999;-80
2021/11/13 10:38:16;;;;;;;;;;;17.20;99.90;;;;;;5035843;28;19912;-80
2021/11/13 10:40:49;;;;;;;;;;;17.10;99.90;;;;;;5035738;28;19913;-80
2021/11/13 10:43:14;;;;;;;;;;;16.70;99.90;;;;;;5036040;28;19912;-80
2021/11/13 10:45:40;;;;;;;;;;;16.90;99.90;;;;;;5034616;28;20354;-81
2021/11/13 10:48:19;;;;;;;;;;;19.60;99.90;;;;;;5035782;28;19908;-80
2021/11/13 10:50:44;;;;;;;;;;;19.50;99.90;;;;;;5027020;28;19913;-80
2021/11/13 10:53:12;;;;;;;;;;;19.40;99.90;;;;;;5035788;28;19905;-81
2021/11/13 10:55:40;;;;;;;;;;;19.70;99.90;;;;;;5034385;28;19912;-80
2021/11/13 10:58:24;;;;;;;;;;;20.70;98.00;;;;;;5035369;28;19908;-80
2021/11/13 11:00:50;;;;;;;;;;;20.20;98.20;;;;;;5035579;28;20016;-81
2021/11/13 11:03:15;;;;;;;;;;;19.50;98.90;;;;;;5035564;28;20397;-80
2021/11/13 11:05:47;;;;;;;;;;;19.20;98.10;;;;;;5035351;28;19978;-80
2021/11/13 11:08:26;;;;;;;;;;;19.10;99.90;;;;;;5034714;28;20396;-80
2021/11/13 11:10:52;;;;;;;;;;;18.70;99.90;;;;;;5035447;28;19944;-80
2021/11/13 11:13:37;;;;;;;;;;;18.20;99.90;;;;;;5034925;28;20345;-80
2021/11/13 11:16:03;;;;;;;;;;;17.60;99.90;;;;;;5035187;28;19975;-80
2021/11/13 11:18:49;;;;;;;;;;;17.20;99.90;;;;;;5034874;28;20313;-80
2021/11/13 11:21:34;;;;;;;;;;;17.20;99.90;;;;;;5034879;28;19909;-80
2021/11/13 11:24:07;;;;;;;;;;;17.20;99.90;;;;;;5034981;28;19905;-80
2021/11/13 11:26:32;;;;;;;;;;;17.00;99.90;;;;;;5033948;28;19905;-80
2021/11/13 11:28:59;;;;;;;;;;;17.00;99.90;;;;;;5034734;28;19932;-81
2021/11/13 11:31:37;;;;;;;;;;;17.10;99.90;;;;;;5035145;28;19959;-80
2021/11/13 11:34:03;;;;;;;;;;;17.90;99.90;;;;;;5035784;28;19997;-80
2021/11/13 11:36:32;;;;;;;;;;;19.70;99.90;;;;;;5035668;28;20001;-81
2021/11/13 11:38:57;;;;;;;;;;;19.80;99.30;;;;;;5033814;28;20271;-81
2021/11/13 11:41:23;;;;;;;;;;;19.20;98.80;;;;;;5035203;28;19912;-80
2021/11/13 11:43:49;;;;;;;;;;;18.70;99.90;;;;;;5035203;28;19913;-80
2021/11/13 11:46:15;;;;;;;;;;;18.10;99.90;;;;;;5035107;28;19905;-80
2021/11/13 11:48:41;;;;;;;;;;;17.60;99.90;;;;;;5035066;28;19951;-80
2021/11/13 11:51:06;;;;;;;;;;;17.10;99.90;;;;;;5035135;28;19905;-81
2021/11/13 11:53:32;;;;;;;;;;;16.80;99.90;;;;;;5034965;28;19932;-80
2021/11/13 11:55:58;;;;;;;;;;;16.70;99.90;;;;;;5033684;28;19905;-80
2021/11/13 11:58:24;;;;;;;;;;;16.70;99.90;;;;;;5033596;28;19905;-80
2021/11/13 12:00:52;;;;;;;;;;;16.70;99.90;;;;;;5035050;28;19959;-81
2021/11/13 12:03:21;;;;;;;;;;;16.70;99.90;;;;;;5034764;28;19951;-80
2021/11/13 12:05:49;;;;;;;;;;;16.60;99.90;;;;;;5033397;28;19912;-81
2021/11/13 12:08:16;;;;;;;;;;;16.40;99.90;;;;;;5034657;28;19904;-79
2021/11/13 12:10:42;;;;;;;;;;;16.20;99.90;;;;;;5033323;28;19915;-80
2021/11/13 12:13:13;;;;;;;;;;;15.90;99.90;;;;;;5034379;28;20356;-80
2021/11/13 12:15:49;;;;;;;;;;;15.70;99.90;;;;;;5034543;28;19909;-80
2021/11/13 12:18:20;;;;;;;;;;;15.60;99.90;;;;;;5034458;28;19905;-80
2021/11/13 12:20:53;;;;;;;;;;;15.60;99.90;;;;;;5033623;28;19935;-80
2021/11/13 12:23:27;;;;;;;;;;;15.70;99.90;;;;;;5033150;28;20277;-81
2021/11/13 12:25:58;;;;;;;;;;;15.80;99.90;;;;;;5034349;28;19905;-80
2021/11/13 12:28:26;;;;;;;;;;;15.90;99.90;;;;;;5034287;28;20420;-80
2021/11/13 12:31:08;;;;;;;;;;;16.40;99.90;;;;;;5034264;28;20281;-80
2021/11/13 12:33:33;;;;;;;;;;;17.00;99.90;;;;;;5034426;28;19905;-79
2021/11/13 12:36:19;;;;;;;;;;;17.00;99.90;;;;;;5034253;28;19951;-81
2021/11/13 12:38:53;;;;;;;;;;;16.60;99.90;;;;;;5034097;28;20441;-80
2021/11/13 12:41:22;;;;;;;;;;;16.40;99.90;;;;;;5034280;28;19909;-80
2021/11/13 12:43:51;;;;;;;;;;;16.20;99.90;;;;;;5032793;28;19909;-80
2021/11/13 12:46:35;;;;;;;;;;;16.00;99.90;;;;;;5034011;28;19932;-80
2021/11/13 12:49:15;;;;;;;;;;;15.80;99.90;;;;;;5034255;28;20304;-80
2021/11/13 12:51:50;;;;;;;;;;;15.70;99.90;;;;;;5034028;28;19905;-80
2021/11/13 12:54:26;;;;;;;;;;;15.70;99.90;;;;;;5033909;28;19932;-81
2021/11/13 12:56:56;;;;;;;;;;;15.70;99.90;;;;;;5034480;28;19909;-80
2021/11/13 12:59:23;;;;;;;;;;;15.70;99.90;;;;;;5034004;28;19913;-80
2021/11/13 13:01:50;;;;;;;;;;;15.80;99.90;;;;;;5033808;28;20285;-81
2021/11/13 13:04:15;;;;;;;;;;;16.50;99.90;;;;;;5032524;28;19905;-80
2021/11/13 13:06:45;;;;;;;;;;;16.70;99.90;;;;;;5033942;28;19906;-79
2021/11/13 13:09:11;;;;;;;;;;;16.90;99.90;;;;;;5033660;28;20283;-80
2021/11/13 13:11:49;;;;;;;;;;;16.90;99.90;;;;;;5033685;28;19924;-81
2021/11/13 13:14:19;;;;;;;;;;;17.10;99.90;;;;;;5033738;28;19905;-81
2021/11/13 13:16:46;;;;;;;;;;;17.10;99.90;;;;;;5033923;28;19916;-80
2021/11/13 13:19:12;;;;;;;;;;;17.00;99.90;;;;;;5033745;28;19909;-80
2021/11/13 13:21:38;;;;;;;;;;;16.90;99.90;;;;;;5033659;28;19991;-81
2021/11/13 13:24:10;;;;;;;;;;;16.60;99.90;;;;;;5033757;28;19912;-81
2021/11/13 13:26:36;;;;;;;;;;;16.60;99.90;;;;;;5033796;28;19905;-79
2021/11/13 13:29:08;;;;;;;;;;;16.40;99.90;;;;;;5033703;28;20365;-81
2021/11/13 13:31:34;;;;;;;;;;;16.20;99.90;;;;;;5035571;28;20392;-81
2021/11/13 13:34:00;;;;;;;;;;;16.00;99.90;;;;;;5037600;28;19909;-80
2021/11/13 13:36:27;;;;;;;;;;;15.70;99.90;;;;;;5037568;28;19955;-80
2021/11/13 13:38:56;;;;;;;;;;;15.60;99.90;;;;;;5037449;28;20284;-79
2021/11/13 13:41:22;;;;;;;;;;;15.70;99.90;;;;;;5037407;28;20020;-79
2021/11/13 13:43:50;;;;;;;;;;;15.70;99.90;;;;;;5037647;28;20376;-80
2021/11/13 13:46:15;;;;;;;;;;;15.90;99.90;;;;;;5037414;28;19905;-80
2021/11/13 13:48:45;;;;;;;;;;;16.10;99.90;;;;;;5036082;28;20466;-80
2021/11/13 13:51:13;;;;;;;;;;;16.00;99.90;;;;;;5037341;28;19913;-80
2021/11/13 13:53:58;;;;;;;;;;;15.90;99.90;;;;;;5037301;28;19905;-80
2021/11/13 13:56:25;;;;;;;;;;;16.10;99.90;;;;;;5037214;28;19954;-81
2021/11/13 13:58:51;;;;;;;;;;;16.80;99.90;;;;;;5037362;28;19905;-80
2021/11/13 14:01:17;;;;;;;;;;;16.90;99.90;;;;;;5037005;28;19909;-80
2021/11/13 14:03:43;;;;;;;;;;;17.30;99.90;;;;;;5037057;28;19948;-80
2021/11/13 14:06:08;;;;;;;;;;;17.40;99.90;;;;;;5037055;28;19905;-80
2021/11/13 14:08:34;;;;;;;;;;;17.10;99.90;;;;;;5036940;28;19907;-80
2021/11/13 14:11:00;;;;;;;;;;;17.20;99.90;;;;;;5036872;28;19905;-80
2021/11/13 14:13:36;;;;;;;;;;;16.90;99.90;;;;;;5036439;28;20019;-81
2021/11/13 14:16:02;;;;;;;;;;;16.70;99.90;;;;;;5036811;28;19958;-80